sensor_id;sensor_type;location;lat;lon;timestamp;P1;durP1;ratioP1;P2;durP2;ratioP2
59161;SDS011;44942;48.936;8.260;2023-03-03T00:02:52;9.53;;;7.53;;
59161;SDS011;44942;48.936;8.260;2023-03-03T00:07:53;8.70;;;7.67;;
59161;SDS011;44942;48.936;8.260;2023-03-03T00:12:53;8.50;;;7.60;;
59161;SDS011;44942;48.936;8.260;2023-03-03T00:17:54;8.67;;;7.63;;
59161;SDS011;44942;48.936;8.260;2023-03-03T00:22:55;7.70;;;6.85;;
59161;SDS011;44942;48.936;8.260;2023-03-03T00:28:07;8.25;;;7.38;;
59161;SDS011;44942;48.936;8.260;2023-03-03T00:33:28;8.45;;;7.55;;
59161;SDS011;44942;48.936;8.260;2023-03-03T00:38:34;8.15;;;7.35;;
59161;SDS011;44942;48.936;8.260;2023-03-03T00:43:35;9.18;;;7.57;;
59161;SDS011;44942;48.936;8.260;2023-03-03T00:53:37;8.70;;;7.50;;
59161;SDS011;44942;48.936;8.260;2023-03-03T00:58:37;8.27;;;7.40;;
59161;SDS011;44942;48.936;8.260;2023-03-03T01:03:38;7.93;;;7.17;;
59161;SDS011;44942;48.936;8.260;2023-03-03T01:08:39;8.45;;;7.55;;
59161;SDS011;44942;48.936;8.260;2023-03-03T01:13:40;8.50;;;7.43;;
59161;SDS011;44942;48.936;8.260;2023-03-03T01:18:43;8.32;;;7.53;;
59161;SDS011;44942;48.936;8.260;2023-03-03T01:23:43;8.50;;;7.53;;
59161;SDS011;44942;48.936;8.260;2023-03-03T01:28:44;9.80;;;7.60;;
59161;SDS011;44942;48.936;8.260;2023-03-03T01:33:44;8.33;;;7.50;;
59161;SDS011;44942;48.936;8.260;2023-03-03T01:38:45;8.57;;;7.27;;
59161;SDS011;44942;48.936;8.260;2023-03-03T01:43:47;8.63;;;7.70;;
59161;SDS011;44942;48.936;8.260;2023-03-03T01:48:49;8.05;;;7.22;;
59161;SDS011;44942;48.936;8.260;2023-03-03T01:53:56;9.70;;;7.47;;
59161;SDS011;44942;48.936;8.260;2023-03-03T01:59:10;8.45;;;7.60;;
59161;SDS011;44942;48.936;8.260;2023-03-03T02:04:16;7.80;;;7.00;;
59161;SDS011;44942;48.936;8.260;2023-03-03T02:09:26;8.32;;;7.50;;
59161;SDS011;44942;48.936;8.260;2023-03-03T02:14:36;8.68;;;7.70;;
59161;SDS011;44942;48.936;8.260;2023-03-03T02:19:46;8.63;;;7.30;;
59161;SDS011;44942;48.936;8.260;2023-03-03T02:30:16;9.10;;;8.18;;
59161;SDS011;44942;48.936;8.260;2023-03-03T02:35:24;8.73;;;7.82;;
59161;SDS011;44942;48.936;8.260;2023-03-03T02:40:30;8.75;;;7.78;;
59161;SDS011;44942;48.936;8.260;2023-03-03T02:45:40;8.98;;;7.97;;
59161;SDS011;44942;48.936;8.260;2023-03-03T02:50:42;8.88;;;7.97;;
59161;SDS011;44942;48.936;8.260;2023-03-03T02:55:42;9.53;;;7.67;;
59161;SDS011;44942;48.936;8.260;2023-03-03T03:00:43;10.00;;;7.47;;
59161;SDS011;44942;48.936;8.260;2023-03-03T03:05:46;8.55;;;7.68;;
59161;SDS011;44942;48.936;8.260;2023-03-03T03:10:47;8.87;;;7.97;;
59161;SDS011;44942;48.936;8.260;2023-03-03T03:15:48;8.70;;;7.82;;
59161;SDS011;44942;48.936;8.260;2023-03-03T03:20:48;7.93;;;7.20;;
59161;SDS011;44942;48.936;8.260;2023-03-03T03:25:49;8.67;;;7.77;;
59161;SDS011;44942;48.936;8.260;2023-03-03T03:30:50;8.90;;;7.93;;
59161;SDS011;44942;48.936;8.260;2023-03-03T03:35:50;8.65;;;7.80;;
59161;SDS011;44942;48.936;8.260;2023-03-03T03:40:52;8.33;;;7.53;;
59161;SDS011;44942;48.936;8.260;2023-03-03T03:45:53;8.32;;;7.53;;
59161;SDS011;44942;48.936;8.260;2023-03-03T03:50:53;8.40;;;7.60;;
59161;SDS011;44942;48.936;8.260;2023-03-03T03:55:54;7.37;;;6.67;;
59161;SDS011;44942;48.936;8.260;2023-03-03T04:00:59;8.70;;;7.80;;
59161;SDS011;44942;48.936;8.260;2023-03-03T04:06:05;8.73;;;7.90;;
59161;SDS011;44942;48.936;8.260;2023-03-03T04:11:05;9.00;;;7.97;;
59161;SDS011;44942;48.936;8.260;2023-03-03T04:16:06;8.70;;;7.77;;
59161;SDS011;44942;48.936;8.260;2023-03-03T04:21:09;9.87;;;7.93;;
59161;SDS011;44942;48.936;8.260;2023-03-03T04:26:13;9.32;;;8.25;;
59161;SDS011;44942;48.936;8.260;2023-03-03T04:31:14;9.63;;;7.93;;
59161;SDS011;44942;48.936;8.260;2023-03-03T04:36:14;9.27;;;8.30;;
59161;SDS011;44942;48.936;8.260;2023-03-03T04:41:15;8.57;;;7.77;;
59161;SDS011;44942;48.936;8.260;2023-03-03T04:46:16;9.40;;;8.37;;
59161;SDS011;44942;48.936;8.260;2023-03-03T04:51:16;10.33;;;8.27;;
59161;SDS011;44942;48.936;8.260;2023-03-03T04:56:17;9.93;;;8.25;;
59161;SDS011;44942;48.936;8.260;2023-03-03T05:01:18;8.70;;;7.80;;
59161;SDS011;44942;48.936;8.260;2023-03-03T05:06:18;8.40;;;7.43;;
59161;SDS011;44942;48.936;8.260;2023-03-03T05:11:19;8.73;;;7.80;;
59161;SDS011;44942;48.936;8.260;2023-03-03T05:16:20;8.68;;;7.82;;
59161;SDS011;44942;48.936;8.260;2023-03-03T05:21:20;10.20;;;7.87;;
59161;SDS011;44942;48.936;8.260;2023-03-03T05:26:21;8.93;;;8.03;;
59161;SDS011;44942;48.936;8.260;2023-03-03T05:31:21;8.53;;;7.63;;
59161;SDS011;44942;48.936;8.260;2023-03-03T05:36:22;8.35;;;7.45;;
59161;SDS011;44942;48.936;8.260;2023-03-03T05:41:24;8.80;;;7.95;;
59161;SDS011;44942;48.936;8.260;2023-03-03T05:46:24;9.37;;;8.37;;
59161;SDS011;44942;48.936;8.260;2023-03-03T05:51:25;8.80;;;7.90;;
59161;SDS011;44942;48.936;8.260;2023-03-03T05:56:25;8.67;;;7.70;;
59161;SDS011;44942;48.936;8.260;2023-03-03T06:01:26;8.73;;;7.83;;
59161;SDS011;44942;48.936;8.260;2023-03-03T06:06:28;8.63;;;7.82;;
59161;SDS011;44942;48.936;8.260;2023-03-03T06:11:28;8.80;;;7.90;;
59161;SDS011;44942;48.936;8.260;2023-03-03T06:16:29;9.73;;;8.57;;
59161;SDS011;44942;48.936;8.260;2023-03-03T06:21:29;9.13;;;8.20;;
59161;SDS011;44942;48.936;8.260;2023-03-03T06:26:30;8.77;;;7.87;;
59161;SDS011;44942;48.936;8.260;2023-03-03T06:31:31;33.17;;;27.40;;
59161;SDS011;44942;48.936;8.260;2023-03-03T06:36:32;36.05;;;30.70;;
59161;SDS011;44942;48.936;8.260;2023-03-03T06:41:33;39.37;;;24.10;;
59161;SDS011;44942;48.936;8.260;2023-03-03T06:46:33;25.00;;;17.70;;
59161;SDS011;44942;48.936;8.260;2023-03-03T06:51:35;20.47;;;16.57;;
59161;SDS011;44942;48.936;8.260;2023-03-03T06:56:40;18.67;;;14.65;;
59161;SDS011;44942;48.936;8.260;2023-03-03T07:01:42;17.92;;;14.13;;
59161;SDS011;44942;48.936;8.260;2023-03-03T07:06:43;16.92;;;13.68;;
59161;SDS011;44942;48.936;8.260;2023-03-03T07:11:44;17.33;;;12.82;;
59161;SDS011;44942;48.936;8.260;2023-03-03T07:16:45;14.70;;;12.40;;
59161;SDS011;44942;48.936;8.260;2023-03-03T07:26:47;13.83;;;11.47;;
59161;SDS011;44942;48.936;8.260;2023-03-03T07:31:48;14.80;;;11.63;;
59161;SDS011;44942;48.936;8.260;2023-03-03T07:36:51;13.85;;;11.43;;
59161;SDS011;44942;48.936;8.260;2023-03-03T07:42:14;12.65;;;10.38;;
59161;SDS011;44942;48.936;8.260;2023-03-03T07:47:26;12.70;;;10.60;;
59161;SDS011;44942;48.936;8.260;2023-03-03T07:52:39;11.18;;;9.93;;
59161;SDS011;44942;48.936;8.260;2023-03-03T07:57:41;12.15;;;10.02;;
59161;SDS011;44942;48.936;8.260;2023-03-03T08:07:53;10.35;;;9.13;;
59161;SDS011;44942;48.936;8.260;2023-03-03T08:18:42;10.48;;;9.07;;
59161;SDS011;44942;48.936;8.260;2023-03-03T08:23:46;11.30;;;9.20;;
59161;SDS011;44942;48.936;8.260;2023-03-03T08:28:51;9.75;;;8.73;;
59161;SDS011;44942;48.936;8.260;2023-03-03T08:33:52;11.02;;;9.10;;
59161;SDS011;44942;48.936;8.260;2023-03-03T08:38:53;10.23;;;8.90;;
59161;SDS011;44942;48.936;8.260;2023-03-03T08:43:53;9.53;;;8.53;;
59161;SDS011;44942;48.936;8.260;2023-03-03T08:48:54;10.50;;;8.40;;
59161;SDS011;44942;48.936;8.260;2023-03-03T08:53:55;10.40;;;8.20;;
59161;SDS011;44942;48.936;8.260;2023-03-03T08:58:55;10.17;;;8.13;;
59161;SDS011;44942;48.936;8.260;2023-03-03T09:03:56;10.83;;;8.53;;
59161;SDS011;44942;48.936;8.260;2023-03-03T09:08:56;9.57;;;8.13;;
59161;SDS011;44942;48.936;8.260;2023-03-03T09:13:58;8.27;;;7.43;;
59161;SDS011;44942;48.936;8.260;2023-03-03T09:19:26;9.55;;;7.50;;
59161;SDS011;44942;48.936;8.260;2023-03-03T09:24:30;10.90;;;7.65;;
59161;SDS011;44942;48.936;8.260;2023-03-03T09:29:37;10.00;;;7.70;;
59161;SDS011;44942;48.936;8.260;2023-03-03T09:39:39;8.73;;;7.03;;
59161;SDS011;44942;48.936;8.260;2023-03-03T10:06:10;8.48;;;6.90;;
59161;SDS011;44942;48.936;8.260;2023-03-03T10:11:31;6.78;;;5.88;;
59161;SDS011;44942;48.936;8.260;2023-03-03T10:22:15;7.90;;;6.32;;
59161;SDS011;44942;48.936;8.260;2023-03-03T10:27:24;10.88;;;6.43;;
59161;SDS011;44942;48.936;8.260;2023-03-03T10:32:38;8.13;;;6.50;;
59161;SDS011;44942;48.936;8.260;2023-03-03T10:43:15;16.42;;;7.15;;
59161;SDS011;44942;48.936;8.260;2023-03-03T10:54:06;9.05;;;6.65;;
59161;SDS011;44942;48.936;8.260;2023-03-03T11:10:02;7.77;;;5.80;;
59161;SDS011;44942;48.936;8.260;2023-03-03T11:15:18;11.45;;;5.95;;
59161;SDS011;44942;48.936;8.260;2023-03-03T11:20:59;7.60;;;5.60;;
59161;SDS011;44942;48.936;8.260;2023-03-03T11:26:10;10.90;;;6.20;;
59161;SDS011;44942;48.936;8.260;2023-03-03T11:36:56;9.50;;;5.53;;
59161;SDS011;44942;48.936;8.260;2023-03-03T11:47:27;6.45;;;5.20;;
59161;SDS011;44942;48.936;8.260;2023-03-03T11:52:50;7.20;;;5.50;;
59161;SDS011;44942;48.936;8.260;2023-03-03T12:03:30;7.13;;;5.18;;
59161;SDS011;44942;48.936;8.260;2023-03-03T12:40:31;5.75;;;4.82;;
59161;SDS011;44942;48.936;8.260;2023-03-03T12:56:17;4.95;;;4.45;;
59161;SDS011;44942;48.936;8.260;2023-03-03T13:17:34;4.78;;;4.25;;
59161;SDS011;44942;48.936;8.260;2023-03-03T13:33:31;4.93;;;4.07;;
59161;SDS011;44942;48.936;8.260;2023-03-03T13:38:41;32.42;;;26.17;;
59161;SDS011;44942;48.936;8.260;2023-03-03T13:43:51;37.75;;;27.38;;
59161;SDS011;44942;48.936;8.260;2023-03-03T14:04:39;30.67;;;24.25;;
59161;SDS011;44942;48.936;8.260;2023-03-03T14:09:59;28.73;;;20.95;;
59161;SDS011;44942;48.936;8.260;2023-03-03T14:15:22;26.33;;;19.27;;
59161;SDS011;44942;48.936;8.260;2023-03-03T14:20:27;25.88;;;18.17;;
59161;SDS011;44942;48.936;8.260;2023-03-03T14:25:48;22.95;;;17.77;;
59161;SDS011;44942;48.936;8.260;2023-03-03T14:30:56;25.13;;;17.88;;
59161;SDS011;44942;48.936;8.260;2023-03-03T14:51:47;22.02;;;16.95;;
59161;SDS011;44942;48.936;8.260;2023-03-03T14:57:37;22.25;;;16.58;;
59161;SDS011;44942;48.936;8.260;2023-03-03T15:07:27;23.37;;;17.50;;
59161;SDS011;44942;48.936;8.260;2023-03-03T15:12:37;23.20;;;17.50;;
59161;SDS011;44942;48.936;8.260;2023-03-03T15:17:58;24.52;;;19.88;;
59161;SDS011;44942;48.936;8.260;2023-03-03T16:05:39;20.05;;;15.88;;
59161;SDS011;44942;48.936;8.260;2023-03-03T16:16:42;21.50;;;16.33;;
59161;SDS011;44942;48.936;8.260;2023-03-03T16:22:10;20.48;;;15.30;;
59161;SDS011;44942;48.936;8.260;2023-03-03T16:27:38;20.40;;;15.75;;
59161;SDS011;44942;48.936;8.260;2023-03-03T16:32:53;20.80;;;16.75;;
59161;SDS011;44942;48.936;8.260;2023-03-03T16:54:30;21.23;;;16.42;;
59161;SDS011;44942;48.936;8.260;2023-03-03T17:36:14;27.67;;;15.13;;
59161;SDS011;44942;48.936;8.260;2023-03-03T17:46:56;25.02;;;13.43;;
59161;SDS011;44942;48.936;8.260;2023-03-03T17:52:22;22.48;;;12.82;;
59161;SDS011;44942;48.936;8.260;2023-03-03T18:08:32;22.17;;;10.93;;
59161;SDS011;44942;48.936;8.260;2023-03-03T18:14:03;20.83;;;10.95;;
59161;SDS011;44942;48.936;8.260;2023-03-03T18:50:34;13.57;;;8.33;;
59161;SDS011;44942;48.936;8.260;2023-03-03T18:55:48;17.23;;;8.20;;
59161;SDS011;44942;48.936;8.260;2023-03-03T19:00:55;15.77;;;8.05;;
59161;SDS011;44942;48.936;8.260;2023-03-03T19:05:59;13.48;;;8.15;;
59161;SDS011;44942;48.936;8.260;2023-03-03T19:11:01;16.80;;;8.55;;
59161;SDS011;44942;48.936;8.260;2023-03-03T19:31:29;13.45;;;7.57;;
59161;SDS011;44942;48.936;8.260;2023-03-03T19:42:00;13.15;;;6.97;;
59161;SDS011;44942;48.936;8.260;2023-03-03T19:52:41;10.88;;;6.70;;
59161;SDS011;44942;48.936;8.260;2023-03-03T20:03:43;9.02;;;6.65;;
59161;SDS011;44942;48.936;8.260;2023-03-03T20:09:02;8.27;;;6.20;;
59161;SDS011;44942;48.936;8.260;2023-03-03T20:51:24;7.95;;;5.60;;
59161;SDS011;44942;48.936;8.260;2023-03-03T21:07:23;7.40;;;5.22;;
59161;SDS011;44942;48.936;8.260;2023-03-03T21:12:29;7.15;;;5.43;;
59161;SDS011;44942;48.936;8.260;2023-03-03T21:17:30;6.65;;;5.32;;
59161;SDS011;44942;48.936;8.260;2023-03-03T21:22:31;8.83;;;5.30;;
59161;SDS011;44942;48.936;8.260;2023-03-03T21:27:33;88.78;;;7.07;;
59161;SDS011;44942;48.936;8.260;2023-03-03T21:32:44;20.88;;;5.10;;
59161;SDS011;44942;48.936;8.260;2023-03-03T21:37:54;13.20;;;5.20;;
59161;SDS011;44942;48.936;8.260;2023-03-03T21:42:57;11.93;;;5.35;;
59161;SDS011;44942;48.936;8.260;2023-03-03T21:47:58;8.85;;;5.30;;
59161;SDS011;44942;48.936;8.260;2023-03-03T21:52:59;8.67;;;4.97;;
59161;SDS011;44942;48.936;8.260;2023-03-03T21:58:00;6.40;;;5.00;;
59161;SDS011;44942;48.936;8.260;2023-03-03T22:03:00;9.13;;;5.07;;
59161;SDS011;44942;48.936;8.260;2023-03-03T22:08:01;7.00;;;4.53;;
59161;SDS011;44942;48.936;8.260;2023-03-03T22:13:02;7.93;;;5.18;;
59161;SDS011;44942;48.936;8.260;2023-03-03T22:18:02;4.73;;;3.57;;
59161;SDS011;44942;48.936;8.260;2023-03-03T22:23:03;5.90;;;4.60;;
59161;SDS011;44942;48.936;8.260;2023-03-03T22:28:04;5.10;;;4.40;;
59161;SDS011;44942;48.936;8.260;2023-03-03T22:33:04;6.23;;;4.53;;
59161;SDS011;44942;48.936;8.260;2023-03-03T22:38:05;5.57;;;4.70;;
59161;SDS011;44942;48.936;8.260;2023-03-03T22:43:05;8.13;;;4.80;;
59161;SDS011;44942;48.936;8.260;2023-03-03T22:48:06;7.27;;;4.90;;
59161;SDS011;44942;48.936;8.260;2023-03-03T22:53:07;6.53;;;5.20;;
59161;SDS011;44942;48.936;8.260;2023-03-03T22:58:07;6.78;;;4.88;;
59161;SDS011;44942;48.936;8.260;2023-03-03T23:03:09;7.17;;;5.20;;
59161;SDS011;44942;48.936;8.260;2023-03-03T23:13:12;7.22;;;5.22;;
59161;SDS011;44942;48.936;8.260;2023-03-03T23:18:14;5.90;;;4.97;;
59161;SDS011;44942;48.936;8.260;2023-03-03T23:23:15;5.70;;;4.70;;
59161;SDS011;44942;48.936;8.260;2023-03-03T23:28:15;5.77;;;4.90;;
59161;SDS011;44942;48.936;8.260;2023-03-03T23:33:17;6.65;;;5.00;;
59161;SDS011;44942;48.936;8.260;2023-03-03T23:38:18;5.30;;;4.28;;
59161;SDS011;44942;48.936;8.260;2023-03-03T23:43:18;6.23;;;5.23;;
59161;SDS011;44942;48.936;8.260;2023-03-03T23:48:19;6.60;;;5.00;;
59161;SDS011;44942;48.936;8.260;2023-03-03T23:53:19;6.33;;;4.60;;
59161;SDS011;44942;48.936;8.260;2023-03-03T23:58:20;6.27;;;4.97;;
